createdAt,value
2017-01-02T00:00:13.658Z,58.07
2017-01-02T00:01:13.824Z,57.21
2017-01-02T00:02:13.353Z,57.12
2017-01-02T00:03:14.047Z,57.24
2017-01-02T00:04:12.182Z,57.77
2017-01-02T00:05:12.124Z,57.93
2017-01-02T00:06:12.249Z,57.99
2017-01-02T00:07:12.431Z,58.02
2017-01-02T00:08:10.693Z,58.04
2017-01-02T00:09:14.558Z,58.04
2017-01-02T00:10:14.519Z,58.06
2017-01-02T00:11:13.176Z,58.05
2017-01-02T00:12:12.881Z,58.06
2017-01-02T00:13:15.602Z,58.07
2017-01-02T00:14:13.151Z,58.07
2017-01-02T00:15:14.191Z,58.08
2017-01-02T00:16:13.112Z,58.07
2017-01-02T00:17:14.014Z,58.07
2017-01-02T00:18:12.170Z,58.07
2017-01-02T00:19:12.858Z,58.08
2017-01-02T00:20:13.767Z,58.10
2017-01-02T00:21:13.447Z,58.09
2017-01-02T00:22:13.496Z,58.09
2017-01-02T00:23:10.541Z,58.10
2017-01-02T00:24:14.351Z,57.16
2017-01-02T00:25:12.707Z,57.88
2017-01-02T00:26:12.833Z,57.99
2017-01-02T00:27:12.010Z,58.08
2017-01-02T00:28:12.030Z,58.09
2017-01-02T00:29:12.919Z,58.11
2017-01-02T00:30:13.004Z,58.10
2017-01-02T00:31:15.162Z,58.12
2017-01-02T00:32:12.942Z,58.12
2017-01-02T00:33:16.373Z,58.13
2017-01-02T00:34:11.611Z,58.13
2017-01-02T00:35:11.070Z,58.12
2017-01-02T00:36:12.519Z,58.12
2017-01-02T00:37:12.599Z,58.14
2017-01-02T00:38:12.680Z,58.11
2017-01-02T00:39:10.235Z,58.14
2017-01-02T00:40:12.756Z,58.15
2017-01-02T00:41:12.830Z,58.14
2017-01-02T00:42:13.560Z,58.14
2017-01-02T00:43:12.739Z,58.14
2017-01-02T00:44:13.454Z,58.17
2017-01-02T00:45:12.518Z,58.16
2017-01-02T00:46:11.622Z,58.17
2017-01-02T00:47:14.211Z,58.16
2017-01-02T00:48:12.771Z,58.16
2017-01-02T00:49:12.823Z,58.17
2017-01-02T00:50:13.007Z,58.17
2017-01-02T00:51:12.150Z,58.17
2017-01-02T00:52:12.891Z,58.18
2017-01-02T00:53:13.569Z,58.19
2017-01-02T00:54:13.864Z,58.19
2017-01-02T00:55:14.767Z,58.21
2017-01-02T00:56:13.368Z,58.22
2017-01-02T00:57:12.618Z,58.21
2017-01-02T00:58:14.847Z,58.21
2017-01-02T00:59:14.031Z,58.23
2017-01-02T01:00:12.733Z,58.22
2017-01-02T01:01:13.356Z,58.21
2017-01-02T01:02:12.435Z,58.23
2017-01-02T01:03:12.559Z,58.22
2017-01-02T01:04:14.477Z,58.22
2017-01-02T01:05:13.256Z,58.23
2017-01-02T01:06:12.680Z,58.21
2017-01-02T01:07:14.004Z,58.22
2017-01-02T01:08:12.190Z,58.22
2017-01-02T01:09:12.248Z,58.22
2017-01-02T01:10:12.961Z,58.23
2017-01-02T01:11:11.129Z,58.10
2017-01-02T01:12:13.851Z,57.27
2017-01-02T01:13:13.849Z,57.27
2017-01-02T01:14:12.899Z,57.89
2017-01-02T01:15:14.200Z,58.06
2017-01-02T01:16:15.530Z,58.12
2017-01-02T01:17:13.232Z,58.16
2017-01-02T01:18:12.373Z,58.17
2017-01-02T01:19:14.731Z,58.19
2017-01-02T01:20:12.916Z,58.18
2017-01-02T01:21:11.321Z,58.18
2017-01-02T01:22:12.962Z,58.18
2017-01-02T01:23:13.679Z,58.19
2017-01-02T01:24:13.876Z,58.18
2017-01-02T01:25:16.699Z,58.19
2017-01-02T01:26:12.943Z,58.15
2017-01-02T01:27:13.730Z,58.17
2017-01-02T01:28:14.949Z,58.19
2017-01-02T01:29:12.005Z,58.18
2017-01-02T01:30:12.936Z,58.19
2017-01-02T01:31:13.311Z,58.20
2017-01-02T01:32:12.964Z,58.20
2017-01-02T01:33:12.098Z,58.19
2017-01-02T01:34:12.962Z,58.18
2017-01-02T01:35:13.017Z,58.17
2017-01-02T01:36:13.734Z,58.17
2017-01-02T01:37:12.841Z,58.17
2017-01-02T01:38:13.711Z,58.18
2017-01-02T01:39:13.858Z,58.16
2017-01-02T01:40:13.795Z,58.16
2017-01-02T01:41:16.321Z,58.15
2017-01-02T01:42:12.499Z,58.15
2017-01-02T01:43:12.653Z,58.16
2017-01-02T01:44:11.837Z,58.04
2017-01-02T01:45:12.922Z,57.20
2017-01-02T01:46:12.605Z,57.00
2017-01-02T01:47:12.912Z,57.21
2017-01-02T01:48:12.959Z,57.78
2017-01-02T01:49:12.801Z,57.94
2017-01-02T01:50:15.631Z,58.01
2017-01-02T01:51:12.773Z,58.05
2017-01-02T01:52:13.872Z,58.06
2017-01-02T01:53:14.874Z,58.08
2017-01-02T01:54:15.568Z,58.09
2017-01-02T01:55:12.658Z,58.10
2017-01-02T01:56:14.489Z,58.11
2017-01-02T01:57:13.222Z,58.09
2017-01-02T01:58:12.664Z,58.09
2017-01-02T01:59:13.343Z,58.11
2017-01-02T02:00:12.361Z,58.10
2017-01-02T02:01:12.554Z,58.12
2017-01-02T02:02:13.502Z,58.13
2017-01-02T02:03:14.197Z,58.13
2017-01-02T02:04:12.922Z,58.01
2017-01-02T02:05:13.645Z,57.18
2017-01-02T02:06:13.496Z,57.01
2017-01-02T02:07:12.470Z,57.80
2017-01-02T02:08:13.776Z,57.96
2017-01-02T02:09:14.786Z,58.02
2017-01-02T02:10:13.670Z,58.06
2017-01-02T02:11:13.221Z,58.10
2017-01-02T02:12:12.915Z,58.12
2017-01-02T02:13:13.636Z,58.12
2017-01-02T02:14:13.522Z,58.11
2017-01-02T02:15:13.435Z,58.13
2017-01-02T02:16:13.317Z,58.12
2017-01-02T02:17:12.572Z,58.12
2017-01-02T02:18:14.210Z,58.10
2017-01-02T02:19:12.759Z,58.12
2017-01-02T02:20:13.700Z,58.11
2017-01-02T02:21:13.323Z,58.10
2017-01-02T02:22:13.647Z,58.10
2017-01-02T02:23:12.764Z,58.12
2017-01-02T02:24:14.504Z,58.12
2017-01-02T02:25:12.618Z,58.12
2017-01-02T02:26:12.772Z,58.13
2017-01-02T02:27:14.273Z,58.13
2017-01-02T02:28:13.090Z,58.13
2017-01-02T02:29:12.902Z,58.14
2017-01-02T02:30:13.485Z,58.14
2017-01-02T02:31:12.618Z,58.14
2017-01-02T02:32:13.215Z,58.14
2017-01-02T02:33:12.860Z,58.16
2017-01-02T02:34:13.849Z,58.16
2017-01-02T02:35:14.038Z,58.17
2017-01-02T02:36:12.169Z,58.16
2017-01-02T02:37:13.096Z,58.18
2017-01-02T02:38:12.793Z,58.18
2017-01-02T02:39:12.764Z,58.17
2017-01-02T02:40:14.204Z,58.18
2017-01-02T02:41:12.842Z,58.18
2017-01-02T02:42:13.434Z,58.17
2017-01-02T02:43:12.401Z,58.20
2017-01-02T02:44:13.255Z,58.19
2017-01-02T02:45:12.429Z,58.21
2017-01-02T02:46:14.317Z,58.20
2017-01-02T02:47:11.594Z,58.07
2017-01-02T02:48:15.845Z,57.58
2017-01-02T02:49:12.984Z,58.02
2017-01-02T02:50:12.694Z,58.11
2017-01-02T02:51:12.795Z,58.14
2017-01-02T02:52:13.605Z,58.16
2017-01-02T02:53:12.472Z,58.17
2017-01-02T02:54:13.733Z,58.16
2017-01-02T02:55:13.484Z,58.17
2017-01-02T02:56:12.587Z,58.17
2017-01-02T02:57:12.768Z,58.15
2017-01-02T02:58:13.322Z,58.17
2017-01-02T02:59:13.016Z,58.16
2017-01-02T03:00:12.128Z,58.16
2017-01-02T03:01:12.841Z,58.16
2017-01-02T03:02:12.919Z,58.15
2017-01-02T03:03:13.003Z,58.17
2017-01-02T03:04:11.930Z,58.16
2017-01-02T03:05:14.045Z,58.16
2017-01-02T03:06:12.804Z,58.15
2017-01-02T03:07:13.579Z,58.15
2017-01-02T03:08:12.723Z,58.15
2017-01-02T03:09:12.764Z,58.15
2017-01-02T03:10:13.364Z,58.17
2017-01-02T03:11:13.252Z,58.16
2017-01-02T03:12:12.255Z,58.16
2017-01-02T03:13:12.265Z,58.16
2017-01-02T03:14:12.273Z,58.15
2017-01-02T03:15:14.014Z,58.15
2017-01-02T03:16:12.800Z,58.15
2017-01-02T03:17:13.248Z,58.14
2017-01-02T03:18:12.535Z,58.16
2017-01-02T03:19:13.221Z,58.15
2017-01-02T03:20:13.843Z,58.16
2017-01-02T03:21:13.887Z,58.14
2017-01-02T03:22:14.103Z,58.15
2017-01-02T03:23:12.855Z,58.15
2017-01-02T03:24:12.999Z,58.15
2017-01-02T03:25:14.729Z,58.15
2017-01-02T03:26:11.777Z,58.17
2017-01-02T03:27:13.343Z,58.18
2017-01-02T03:28:13.172Z,58.18
2017-01-02T03:29:12.383Z,58.18
2017-01-02T03:30:14.154Z,58.18
2017-01-02T03:31:12.726Z,58.16
2017-01-02T03:32:13.527Z,58.17
2017-01-02T03:33:12.466Z,58.15
2017-01-02T03:34:12.528Z,58.15
2017-01-02T03:35:12.924Z,58.17
2017-01-02T03:36:13.676Z,58.15
2017-01-02T03:37:13.716Z,58.14
2017-01-02T03:38:12.774Z,58.14
2017-01-02T03:39:12.965Z,58.15
2017-01-02T03:40:13.675Z,58.17
2017-01-02T03:41:12.976Z,58.16
2017-01-02T03:42:13.225Z,58.16
2017-01-02T03:43:12.206Z,58.15
2017-01-02T03:44:13.285Z,58.16
2017-01-02T03:45:12.400Z,58.14
2017-01-02T03:46:13.179Z,58.13
2017-01-02T03:47:12.120Z,58.14
2017-01-02T03:48:12.203Z,58.12
2017-01-02T03:49:12.324Z,58.13
2017-01-02T03:50:13.455Z,58.13
2017-01-02T03:51:12.566Z,58.12
2017-01-02T03:52:12.645Z,58.13
2017-01-02T03:53:12.844Z,58.13
2017-01-02T03:54:13.052Z,58.13
2017-01-02T03:55:13.745Z,58.14
2017-01-02T03:56:13.634Z,58.13
2017-01-02T03:57:13.222Z,58.14
2017-01-02T03:58:11.110Z,58.12
2017-01-02T03:59:12.789Z,58.11
2017-01-02T04:00:13.482Z,58.12
2017-01-02T04:01:12.821Z,58.11
2017-01-02T04:02:13.548Z,58.12
2017-01-02T04:03:12.675Z,58.11
2017-01-02T04:04:13.858Z,58.13
2017-01-02T04:05:13.531Z,58.13
2017-01-02T04:06:14.350Z,58.13
2017-01-02T04:07:12.304Z,58.12
2017-01-02T04:08:13.728Z,58.11
2017-01-02T04:09:12.714Z,58.11
2017-01-02T04:10:13.681Z,58.10
2017-01-02T04:11:13.873Z,58.11
2017-01-02T04:12:12.923Z,58.12
2017-01-02T04:13:12.984Z,58.11
2017-01-02T04:14:14.032Z,58.12
2017-01-02T04:15:13.005Z,58.13
2017-01-02T04:16:10.971Z,58.12
2017-01-02T04:17:15.620Z,57.18
2017-01-02T04:18:13.365Z,56.99
2017-01-02T04:19:14.496Z,56.89
2017-01-02T04:20:11.482Z,56.86
2017-01-02T04:21:13.272Z,57.71
2017-01-02T04:22:12.421Z,57.91
2017-01-02T04:23:12.589Z,58.00
2017-01-02T04:24:14.755Z,58.04
2017-01-02T04:25:13.396Z,58.07
2017-01-02T04:26:13.154Z,58.09
2017-01-02T04:27:13.801Z,58.10
2017-01-02T04:28:13.918Z,58.09
2017-01-02T04:29:13.348Z,58.11
2017-01-02T04:30:12.992Z,58.12
2017-01-02T04:31:12.890Z,58.12
2017-01-02T04:32:13.574Z,58.11
2017-01-02T04:33:15.575Z,58.12
2017-01-02T04:34:12.937Z,58.13
2017-01-02T04:35:12.929Z,58.13
2017-01-02T04:36:14.313Z,58.13
2017-01-02T04:37:13.165Z,58.13
2017-01-02T04:38:12.188Z,58.13
2017-01-02T04:39:12.261Z,58.12
2017-01-02T04:40:12.272Z,58.14
2017-01-02T04:41:12.964Z,58.12
2017-01-02T04:42:12.710Z,58.13
2017-01-02T04:43:13.355Z,58.13
2017-01-02T04:44:13.130Z,58.12
2017-01-02T04:45:13.576Z,58.15
2017-01-02T04:46:13.199Z,58.03
2017-01-02T04:47:13.417Z,57.19
2017-01-02T04:48:13.315Z,57.04
2017-01-02T04:49:12.490Z,57.83
2017-01-02T04:50:12.418Z,57.97
2017-01-02T04:51:13.099Z,58.04
2017-01-02T04:52:12.191Z,58.06
2017-01-02T04:53:12.875Z,58.06
2017-01-02T04:54:13.881Z,58.09
2017-01-02T04:55:13.454Z,58.09
2017-01-02T04:56:12.598Z,58.10
2017-01-02T04:57:13.020Z,58.10
2017-01-02T04:58:13.784Z,58.11
2017-01-02T04:59:12.942Z,58.10
2017-01-02T05:00:12.169Z,58.12
2017-01-02T05:01:12.858Z,58.12
2017-01-02T05:02:13.644Z,58.12
2017-01-02T05:03:12.705Z,58.11
2017-01-02T05:04:13.233Z,58.11
2017-01-02T05:05:12.399Z,58.12
2017-01-02T05:06:11.651Z,58.01
2017-01-02T05:07:13.207Z,57.16
2017-01-02T05:08:13.259Z,57.24
2017-01-02T05:09:17.074Z,57.81
2017-01-02T05:10:13.018Z,57.96
2017-01-02T05:11:12.014Z,58.01
2017-01-02T05:12:12.659Z,58.06
2017-01-02T05:13:12.622Z,58.07
2017-01-02T05:14:13.253Z,58.08
2017-01-02T05:15:14.322Z,58.09
2017-01-02T05:16:13.176Z,58.11
2017-01-02T05:17:12.324Z,58.10
2017-01-02T05:18:11.393Z,58.11
2017-01-02T05:19:12.962Z,57.16
2017-01-02T05:20:12.091Z,56.97
2017-01-02T05:21:14.022Z,56.86
2017-01-02T05:22:12.619Z,57.07
2017-01-02T05:23:12.616Z,57.69
2017-01-02T05:24:13.210Z,57.87
2017-01-02T05:25:17.646Z,57.81
2017-01-02T05:26:18.070Z,57.06
2017-01-02T05:27:16.808Z,56.87
2017-01-02T05:28:12.722Z,56.80
2017-01-02T05:29:13.327Z,56.77
2017-01-02T05:30:14.260Z,57.01
2017-01-02T05:31:13.275Z,57.64
2017-01-02T05:32:12.375Z,57.82
2017-01-02T05:33:12.218Z,57.92
2017-01-02T05:34:12.743Z,57.99
2017-01-02T05:35:12.738Z,58.02
2017-01-02T05:36:12.949Z,58.01
2017-01-02T05:37:12.001Z,58.04
2017-01-02T05:38:09.814Z,58.06
2017-01-02T05:39:12.695Z,58.05
2017-01-02T05:40:12.849Z,58.06
2017-01-02T05:41:13.579Z,58.08
2017-01-02T05:42:14.237Z,58.08
2017-01-02T05:43:13.015Z,58.08
2017-01-02T05:44:12.865Z,58.07
2017-01-02T05:45:12.757Z,58.05
2017-01-02T05:46:13.348Z,58.08
2017-01-02T05:47:12.413Z,58.08
2017-01-02T05:48:13.379Z,58.07
2017-01-02T05:49:12.419Z,58.08
2017-01-02T05:50:13.041Z,58.07
2017-01-02T05:51:12.036Z,58.06
2017-01-02T05:52:11.079Z,58.07
2017-01-02T05:53:13.888Z,58.06
2017-01-02T05:54:13.748Z,58.06
2017-01-02T05:55:14.195Z,58.08
2017-01-02T05:56:13.123Z,58.08
2017-01-02T05:57:12.161Z,58.06
2017-01-02T05:58:13.071Z,58.06
2017-01-02T05:59:12.187Z,58.06
2017-01-02T06:00:12.757Z,58.05
2017-01-02T06:01:12.872Z,58.05
2017-01-02T06:02:10.873Z,58.07
2017-01-02T06:03:13.685Z,58.05
2017-01-02T06:04:12.706Z,58.05
2017-01-02T06:05:12.710Z,58.08
2017-01-02T06:06:12.555Z,58.08
2017-01-02T06:07:13.281Z,58.08
2017-01-02T06:08:13.292Z,58.08
2017-01-02T06:09:13.894Z,58.04
2017-01-02T06:10:14.401Z,57.16
2017-01-02T06:11:12.494Z,56.90
2017-01-02T06:12:12.579Z,56.84
2017-01-02T06:13:13.318Z,57.06
2017-01-02T06:14:12.929Z,57.70
2017-01-02T06:15:12.666Z,57.87
2017-01-02T06:16:12.648Z,57.95
2017-01-02T06:17:13.411Z,58.01
2017-01-02T06:18:12.523Z,58.02
2017-01-02T06:19:13.279Z,58.03
2017-01-02T06:20:12.306Z,58.05
2017-01-02T06:21:14.070Z,58.04
2017-01-02T06:22:13.706Z,58.05
2017-01-02T06:23:12.740Z,58.04
2017-01-02T06:24:12.901Z,58.04
2017-01-02T06:25:14.781Z,58.04
2017-01-02T06:26:12.864Z,58.06
2017-01-02T06:27:12.708Z,58.06
2017-01-02T06:28:13.281Z,58.05
2017-01-02T06:29:12.618Z,58.04
2017-01-02T06:30:13.195Z,58.04
2017-01-02T06:31:12.947Z,58.05
2017-01-02T06:32:12.670Z,58.04
2017-01-02T06:33:15.427Z,58.05
2017-01-02T06:34:13.223Z,58.05
2017-01-02T06:35:12.498Z,58.06
2017-01-02T06:36:12.370Z,58.06
2017-01-02T06:37:13.012Z,58.04
2017-01-02T06:38:12.555Z,58.04
2017-01-02T06:39:12.978Z,58.03
2017-01-02T06:40:13.059Z,58.05
2017-01-02T06:41:12.201Z,58.05
2017-01-02T06:42:12.862Z,57.96
2017-01-02T06:43:12.965Z,57.12
2017-01-02T06:44:12.321Z,57.83
2017-01-02T06:45:13.060Z,57.94
2017-01-02T06:46:13.349Z,57.98
2017-01-02T06:47:13.119Z,57.99
2017-01-02T06:48:14.190Z,58.02
2017-01-02T06:49:12.120Z,58.02
2017-01-02T06:50:11.518Z,58.03
2017-01-02T06:51:12.022Z,57.10
2017-01-02T06:52:13.015Z,56.92
2017-01-02T06:53:12.184Z,56.81
2017-01-02T06:54:12.434Z,56.74
2017-01-02T06:55:12.485Z,56.70
2017-01-02T06:56:12.578Z,56.67
2017-01-02T06:57:12.667Z,56.82
2017-01-02T06:58:11.717Z,57.47
2017-01-02T06:59:13.172Z,56.84
2017-01-02T07:00:12.874Z,56.73
2017-01-02T07:01:13.611Z,56.70
2017-01-02T07:02:12.801Z,56.69
2017-01-02T07:03:13.452Z,56.67
2017-01-02T07:04:13.042Z,56.68
2017-01-02T07:05:12.044Z,56.65
2017-01-02T07:06:12.017Z,57.56
2017-01-02T07:07:12.040Z,57.76
2017-01-02T07:08:13.981Z,57.85
2017-01-02T07:09:10.849Z,57.91
2017-01-02T07:10:12.877Z,57.95
2017-01-02T07:11:15.847Z,57.99
2017-01-02T07:12:12.986Z,57.99
2017-01-02T07:13:13.133Z,58.00
2017-01-02T07:14:12.950Z,58.02
2017-01-02T07:15:12.642Z,58.01
2017-01-02T07:16:13.846Z,58.02
2017-01-02T07:17:13.459Z,58.01
2017-01-02T07:18:13.083Z,58.01
2017-01-02T07:19:12.037Z,58.01
2017-01-02T07:20:13.851Z,58.03
2017-01-02T07:21:13.202Z,58.04
2017-01-02T07:22:12.266Z,58.04
2017-01-02T07:23:12.283Z,58.04
2017-01-02T07:24:13.104Z,58.04
2017-01-02T07:25:12.140Z,58.02
2017-01-02T07:26:12.900Z,58.04
2017-01-02T07:27:12.880Z,58.03
2017-01-02T07:28:13.848Z,58.03
2017-01-02T07:29:12.869Z,58.03
2017-01-02T07:30:13.039Z,58.04
2017-01-02T07:31:12.631Z,58.04
2017-01-02T07:32:14.750Z,58.05
2017-01-02T07:33:09.952Z,58.07
2017-01-02T07:34:12.713Z,58.05
2017-01-02T07:35:12.678Z,58.05
2017-01-02T07:36:13.571Z,58.03
2017-01-02T07:37:12.580Z,58.04
2017-01-02T07:38:12.863Z,58.05
2017-01-02T07:39:13.354Z,58.04
2017-01-02T07:40:13.393Z,58.02
2017-01-02T07:41:14.317Z,58.04
2017-01-02T07:42:12.188Z,58.03
2017-01-02T07:43:12.592Z,58.04
2017-01-02T07:44:12.888Z,58.02
2017-01-02T07:45:13.390Z,58.04
2017-01-02T07:46:13.341Z,58.03
2017-01-02T07:47:13.673Z,58.03
2017-01-02T07:48:12.645Z,58.04
2017-01-02T07:49:14.900Z,58.06
2017-01-02T07:50:13.667Z,58.06
2017-01-02T07:51:16.669Z,58.06
2017-01-02T07:52:11.664Z,57.94
2017-01-02T07:53:14.520Z,57.48
2017-01-02T07:54:14.363Z,57.87
2017-01-02T07:55:12.621Z,57.97
2017-01-02T07:56:12.751Z,58.00
2017-01-02T07:57:12.910Z,58.04
2017-01-02T07:58:13.562Z,58.04
2017-01-02T07:59:13.355Z,58.05
2017-01-02T08:00:12.498Z,58.05
2017-01-02T08:01:13.100Z,58.05
2017-01-02T08:02:12.100Z,58.05
2017-01-02T08:03:12.206Z,58.05
2017-01-02T08:04:13.042Z,58.06
2017-01-02T08:05:12.743Z,58.05
2017-01-02T08:06:13.160Z,58.04
2017-01-02T08:07:12.256Z,58.05
2017-01-02T08:08:13.045Z,58.06
2017-01-02T08:09:12.817Z,58.07
2017-01-02T08:10:12.958Z,58.05
2017-01-02T08:11:13.341Z,58.03
2017-01-02T08:12:12.202Z,58.04
2017-01-02T08:13:13.019Z,58.05
2017-01-02T08:14:12.580Z,58.03
2017-01-02T08:15:12.657Z,58.05
2017-01-02T08:16:13.404Z,58.05
2017-01-02T08:17:14.336Z,58.06
2017-01-02T08:18:12.391Z,58.05
2017-01-02T08:19:12.466Z,58.07
2017-01-02T08:20:13.141Z,58.07
2017-01-02T08:21:14.992Z,58.06
2017-01-02T08:22:13.669Z,58.06
2017-01-02T08:23:12.901Z,58.05
2017-01-02T08:24:13.639Z,58.06
2017-01-02T08:25:12.298Z,58.07
2017-01-02T08:26:13.258Z,58.06
2017-01-02T08:27:13.016Z,58.06
2017-01-02T08:28:12.803Z,58.06
2017-01-02T08:29:13.382Z,58.04
2017-01-02T08:30:12.472Z,58.05
2017-01-02T08:31:12.597Z,58.05
2017-01-02T08:32:14.949Z,58.05
2017-01-02T08:33:12.801Z,58.06
2017-01-02T08:34:14.629Z,58.04
2017-01-02T08:35:14.048Z,58.04
2017-01-02T08:36:12.763Z,58.04
2017-01-02T08:37:13.372Z,58.01
2017-01-02T08:38:12.490Z,58.01
2017-01-02T08:39:13.315Z,58.01
2017-01-02T08:40:13.295Z,58.02
2017-01-02T08:41:12.987Z,58.02
2017-01-02T08:42:12.672Z,58.02
2017-01-02T08:43:11.960Z,58.05
2017-01-02T08:44:12.910Z,58.04
2017-01-02T08:45:12.145Z,58.07
2017-01-02T08:46:12.145Z,57.13
2017-01-02T08:47:12.830Z,57.17
2017-01-02T08:48:13.574Z,57.75
2017-01-02T08:49:12.707Z,57.89
2017-01-02T08:50:11.723Z,57.96
2017-01-02T08:51:13.545Z,58.00
2017-01-02T08:52:13.514Z,58.04
2017-01-02T08:53:13.151Z,58.07
2017-01-02T08:54:12.228Z,58.07
2017-01-02T08:55:12.429Z,58.07
2017-01-02T08:56:12.533Z,58.05
2017-01-02T08:57:13.236Z,58.04
2017-01-02T08:58:12.213Z,58.06
2017-01-02T08:59:12.843Z,58.06
2017-01-02T09:00:12.910Z,58.06
2017-01-02T09:01:13.507Z,58.08
2017-01-02T09:02:14.697Z,58.08
2017-01-02T09:03:12.742Z,58.08
2017-01-02T09:04:13.273Z,57.98
2017-01-02T09:05:12.467Z,57.16
2017-01-02T09:06:12.320Z,56.94
2017-01-02T09:07:11.323Z,56.84
2017-01-02T09:08:12.859Z,56.97
2017-01-02T09:09:12.899Z,57.65
2017-01-02T09:10:13.532Z,57.84
2017-01-02T09:11:13.071Z,57.20
2017-01-02T09:12:15.172Z,57.79
2017-01-02T09:13:12.772Z,57.92
2017-01-02T09:14:13.588Z,57.97
2017-01-02T09:15:13.232Z,57.89
2017-01-02T09:16:14.067Z,57.38
2017-01-02T09:17:12.783Z,57.85
2017-01-02T09:18:12.966Z,57.97
2017-01-02T09:19:13.661Z,58.00
2017-01-02T09:20:12.694Z,58.02
2017-01-02T09:21:12.910Z,58.03
2017-01-02T09:22:13.179Z,58.06
2017-01-02T09:23:12.201Z,58.06
2017-01-02T09:24:15.285Z,58.06
2017-01-02T09:25:13.155Z,58.07
2017-01-02T09:26:12.162Z,58.08
2017-01-02T09:27:12.212Z,58.08
2017-01-02T09:28:12.521Z,58.09
2017-01-02T09:29:12.363Z,58.08
2017-01-02T09:30:11.129Z,57.94
2017-01-02T09:31:12.126Z,58.08
2017-01-02T09:32:12.383Z,58.09
2017-01-02T09:33:12.494Z,58.09
2017-01-02T09:34:12.505Z,58.11
2017-01-02T09:35:12.492Z,58.10
2017-01-02T09:36:13.352Z,58.11
2017-01-02T09:37:12.270Z,58.12
2017-01-02T09:38:12.538Z,58.11
2017-01-02T09:39:13.411Z,58.11
2017-01-02T09:40:11.486Z,58.01
2017-01-02T09:41:13.003Z,57.18
2017-01-02T09:42:11.075Z,57.91
2017-01-02T09:43:12.046Z,58.02
2017-01-02T09:44:11.287Z,58.09
2017-01-02T09:45:12.953Z,58.08
2017-01-02T09:46:11.165Z,58.12
2017-01-02T09:47:12.422Z,58.11
2017-01-02T09:48:12.544Z,58.11
2017-01-02T09:49:12.512Z,58.11
2017-01-02T09:50:12.600Z,58.11
2017-01-02T09:51:13.274Z,58.13
2017-01-02T09:52:12.903Z,58.13
2017-01-02T09:53:11.823Z,58.16
2017-01-02T09:54:12.812Z,58.14
2017-01-02T09:55:13.678Z,58.14
2017-01-02T09:56:13.408Z,58.15
2017-01-02T09:57:14.199Z,58.14
2017-01-02T09:58:10.891Z,58.15
2017-01-02T09:59:13.768Z,58.13
2017-01-02T10:00:14.633Z,58.13
2017-01-02T10:01:14.898Z,58.12
2017-01-02T10:02:13.713Z,58.15
2017-01-02T10:03:15.979Z,58.14
2017-01-02T10:04:10.384Z,58.16
2017-01-02T10:05:12.886Z,58.14
2017-01-02T10:06:13.674Z,58.15
2017-01-02T10:07:14.432Z,58.16
2017-01-02T10:08:12.517Z,58.14
2017-01-02T10:09:13.365Z,58.08
2017-01-02T10:10:13.963Z,57.19
2017-01-02T10:11:12.463Z,57.01
2017-01-02T10:12:12.972Z,56.90
2017-01-02T10:13:11.024Z,57.75
2017-01-02T10:14:12.669Z,57.95
2017-01-02T10:15:13.152Z,58.04
2017-01-02T10:16:14.053Z,58.07
2017-01-02T10:17:12.828Z,58.09
2017-01-02T10:18:13.441Z,58.10
2017-01-02T10:19:12.587Z,58.14
2017-01-02T10:20:14.254Z,58.14
2017-01-02T10:21:12.364Z,58.15
2017-01-02T10:22:11.314Z,58.16
2017-01-02T10:23:12.888Z,58.16
2017-01-02T10:24:13.331Z,58.17
2017-01-02T10:25:12.391Z,58.17
2017-01-02T10:26:12.461Z,58.16
2017-01-02T10:27:14.296Z,58.16
2017-01-02T10:28:12.359Z,58.17
2017-01-02T10:29:12.618Z,58.17
2017-01-02T10:30:12.627Z,58.17
2017-01-02T10:31:13.001Z,58.17
2017-01-02T10:32:14.875Z,58.17
2017-01-02T10:33:12.944Z,58.16
2017-01-02T10:34:12.439Z,58.37
2017-01-02T10:35:13.174Z,58.30
2017-01-02T10:36:12.226Z,58.18
2017-01-02T10:37:12.471Z,58.14
2017-01-02T10:38:12.477Z,58.15
2017-01-02T10:39:13.129Z,58.20
2017-01-02T10:40:12.057Z,58.22
2017-01-02T10:41:12.104Z,58.23
2017-01-02T10:42:17.428Z,58.25
2017-01-02T10:43:13.142Z,58.23
2017-01-02T10:44:12.661Z,58.23
2017-01-02T10:45:14.460Z,58.24
2017-01-02T10:46:14.435Z,58.24
2017-01-02T10:47:12.570Z,58.22
2017-01-02T10:48:14.981Z,58.21
2017-01-02T10:49:12.009Z,58.23
2017-01-02T10:50:12.138Z,58.23
2017-01-02T10:51:11.521Z,58.25
2017-01-02T10:52:11.535Z,58.23
2017-01-02T10:53:11.607Z,58.22
2017-01-02T10:54:12.672Z,58.21
2017-01-02T10:55:13.471Z,58.22
2017-01-02T10:56:14.252Z,58.22
2017-01-02T10:57:12.339Z,58.21
2017-01-02T10:58:13.397Z,58.21
2017-01-02T10:59:13.571Z,58.23
2017-01-02T11:00:12.725Z,58.23
2017-01-02T11:01:12.780Z,58.24
2017-01-02T11:02:11.882Z,58.24
2017-01-02T11:03:12.959Z,58.23
2017-01-02T11:04:12.701Z,58.21
2017-01-02T11:05:16.443Z,58.19
2017-01-02T11:06:13.117Z,58.20
2017-01-02T11:07:12.945Z,58.20
2017-01-02T11:08:12.158Z,58.20
2017-01-02T11:09:12.921Z,58.18
2017-01-02T11:10:13.091Z,47.04
2017-01-02T11:11:12.691Z,44.03
2017-01-02T11:12:12.779Z,49.45
2017-01-02T11:13:14.274Z,48.10
2017-01-02T11:14:15.503Z,48.76
2017-01-02T11:15:13.678Z,49.27
2017-01-02T11:16:13.425Z,49.19
2017-01-02T11:17:13.061Z,49.19
2017-01-02T11:18:12.750Z,48.65
2017-01-02T11:19:12.745Z,48.71
2017-01-02T11:20:13.878Z,48.88
2017-01-02T11:21:13.018Z,49.16
2017-01-02T11:22:12.609Z,50.23
2017-01-02T11:23:13.469Z,50.30
2017-01-02T11:24:10.144Z,50.87
2017-01-02T11:25:12.708Z,51.20
2017-01-02T11:26:11.800Z,51.89
2017-01-02T11:27:12.802Z,50.41
2017-01-02T11:28:12.821Z,48.89
2017-01-02T11:29:14.490Z,47.91
2017-01-02T11:30:12.513Z,47.34
2017-01-02T11:31:14.719Z,47.13
2017-01-02T11:32:12.930Z,47.27
2017-01-02T11:33:12.212Z,47.11
2017-01-02T11:34:12.336Z,46.73
2017-01-02T11:35:13.018Z,46.57
2017-01-02T11:36:12.585Z,46.26
2017-01-02T11:37:13.627Z,46.23
2017-01-02T11:38:13.329Z,45.92
2017-01-02T11:39:12.611Z,45.96
2017-01-02T11:40:12.841Z,46.07
2017-01-02T11:41:12.130Z,45.72
2017-01-02T11:42:14.271Z,45.66
2017-01-02T11:43:12.917Z,45.59
2017-01-02T11:44:12.886Z,45.49
2017-01-02T11:45:13.148Z,45.32
2017-01-02T11:46:12.642Z,45.24
2017-01-02T11:47:13.391Z,45.29
2017-01-02T11:48:13.099Z,45.30
2017-01-02T11:49:12.229Z,45.38
2017-01-02T11:50:12.952Z,45.36
2017-01-02T11:51:12.083Z,45.45
2017-01-02T11:52:12.110Z,45.39
2017-01-02T11:53:12.193Z,45.51
2017-01-02T11:54:12.306Z,45.38
2017-01-02T11:55:13.337Z,45.49
2017-01-02T11:56:12.296Z,45.56
2017-01-02T11:57:14.245Z,45.60
2017-01-02T11:58:12.115Z,45.64
2017-01-02T11:59:12.645Z,45.67
2017-01-02T12:00:13.571Z,45.76
2017-01-02T12:01:12.729Z,45.82
2017-01-02T12:02:12.698Z,45.78
2017-01-02T12:03:13.453Z,45.86
2017-01-02T12:04:13.049Z,45.96
2017-01-02T12:05:13.343Z,45.99
2017-01-02T12:06:09.627Z,46.04
2017-01-02T12:07:16.059Z,46.05
2017-01-02T12:08:14.470Z,46.18
2017-01-02T12:09:14.544Z,46.25
2017-01-02T12:10:15.599Z,46.30
2017-01-02T12:11:13.135Z,46.33
2017-01-02T12:12:14.122Z,46.30
2017-01-02T12:13:13.685Z,46.43
2017-01-02T12:14:15.271Z,46.54
2017-01-02T12:15:13.130Z,46.62
2017-01-02T12:16:13.748Z,46.65
2017-01-02T12:17:12.417Z,46.70
2017-01-02T12:18:15.839Z,46.74
2017-01-02T12:19:14.296Z,46.72
2017-01-02T12:20:12.745Z,46.76
2017-01-02T12:21:15.527Z,46.84
2017-01-02T12:22:13.689Z,46.90
2017-01-02T12:23:12.761Z,46.99
2017-01-02T12:24:16.258Z,47.06
2017-01-02T12:25:13.141Z,47.13
2017-01-02T12:26:13.144Z,47.16
2017-01-02T12:27:13.517Z,47.25
2017-01-02T12:28:13.473Z,47.30
2017-01-02T12:29:12.461Z,47.44
2017-01-02T12:30:13.720Z,47.40
2017-01-02T12:31:13.998Z,47.39
2017-01-02T12:32:13.669Z,47.50
2017-01-02T12:33:15.947Z,47.60
2017-01-02T12:34:12.159Z,47.89
2017-01-02T12:35:12.760Z,48.00
2017-01-02T12:36:13.721Z,48.01
2017-01-02T12:37:14.362Z,48.06
2017-01-02T12:38:14.017Z,48.10
2017-01-02T12:39:13.125Z,48.64
2017-01-02T12:40:14.625Z,48.82
2017-01-02T12:41:13.173Z,48.85
2017-01-02T12:42:13.731Z,48.99
2017-01-02T12:43:12.735Z,49.18
2017-01-02T12:44:14.422Z,49.42
2017-01-02T12:45:12.884Z,49.58
2017-01-02T12:46:13.045Z,49.75
2017-01-02T12:47:13.054Z,49.88
2017-01-02T12:48:14.362Z,50.04
2017-01-02T12:49:12.602Z,50.10
2017-01-02T12:50:13.874Z,50.22
2017-01-02T12:51:13.287Z,50.26
2017-01-02T12:52:12.351Z,50.41